Time;durP1;ratioP1;P1;durP2;ratioP2;P2;SDS_P1;SDS_P2;PMS_P1;PMS_P2;Temp;Humidity;BMP_temperature;BMP_pressure;BME280_temperature;BME280_humidity;BME280_pressure;Samples;Min_cycle;Max_cycle;Signal;HPM_P1;HPM_P2
2022/03/26 05:15:03;;;;;;;31.52;15.18;;;;;;;3.04;79.11;101451.06;5560964;32;302590;-83
2022/03/26 05:18:08;;;;;;;30.90;14.77;;;;;;;3.05;78.93;101460.69;5551511;32;33971;-83
2022/03/26 05:21:11;;;;;;;28.62;15.20;;;;;;;3.14;79.27;101459.78;5551207;32;34078;-82
2022/03/26 05:24:14;;;;;;;24.90;13.57;;;;;;;3.26;79.31;101462.41;5551966;32;34178;-83
2022/03/26 05:27:17;;;;;;;23.83;13.15;;;;;;;3.42;76.63;101470.25;5551294;32;34039;-82
2022/03/26 05:30:21;;;;;;;29.25;12.88;;;;;;;3.59;76.42;101464.94;5550881;32;33965;-83
2022/03/26 05:33:25;;;;;;;24.37;13.65;;;;;;;3.74;77.36;101471.91;5551348;32;35349;-83
2022/03/26 05:36:28;;;;;;;30.55;13.38;;;;;;;3.90;77.30;101476.22;5551546;32;34528;-83
2022/03/26 05:39:31;;;;;;;23.87;13.35;;;;;;;4.07;76.78;101479.66;5552656;32;34067;-83
2022/03/26 05:42:36;;;;;;;26.15;13.57;;;;;;;4.22;75.10;101478.69;5553667;32;34919;-83
2022/03/26 05:45:38;;;;;;;27.20;12.93;;;;;;;4.40;73.31;101478.59;5551774;32;33999;-83
2022/03/26 05:48:41;;;;;;;22.98;13.73;;;;;;;4.62;73.10;101478.44;5552263;32;34564;-82
2022/03/26 05:51:44;;;;;;;29.80;14.27;;;;;;;4.84;71.87;101492.28;5554194;32;33998;-82
2022/03/26 05:54:47;;;;;;;32.30;14.80;;;;;;;5.07;70.71;101480.72;5552122;32;34185;-82
2022/03/26 05:57:50;;;;;;;26.40;13.32;;;;;;;5.90;69.53;101477.22;5551203;32;34085;-82
2022/03/26 06:00:52;;;;;;;26.52;12.75;;;;;;;7.25;62.17;101474.34;5551200;32;33765;-87
2022/03/26 06:03:55;;;;;;;21.60;13.35;;;;;;;9.12;58.39;101473.81;5551120;32;33660;-88
2022/03/26 06:06:59;;;;;;;22.13;12.80;;;;;;;11.31;50.29;101473.41;5550729;32;34614;-88
2022/03/26 06:10:03;;;;;;;20.08;12.43;;;;;;;13.14;44.62;101464.63;5570506;32;34686;-86
2022/03/26 06:13:06;;;;;;;24.08;12.70;;;;;;;14.90;38.07;101470.78;5570532;32;34671;-84
2022/03/26 06:16:10;;;;;;;22.75;13.55;;;;;;;16.51;35.44;101470.31;5570184;32;33979;-84
2022/03/26 06:19:13;;;;;;;20.55;12.98;;;;;;;17.73;33.04;101459.50;5571569;32;33916;-85
2022/03/26 06:22:16;;;;;;;23.02;13.55;;;;;;;18.20;30.94;101461.94;5570189;32;34042;-83
2022/03/26 06:25:20;;;;;;;18.00;12.60;;;;;;;18.25;31.37;101469.72;5561035;32;34219;-84
2022/03/26 06:28:24;;;;;;;25.48;12.32;;;;;;;18.85;30.50;101465.75;5555990;32;33958;-84
2022/03/26 06:31:26;;;;;;;22.90;12.55;;;;;;;19.30;29.60;101461.00;5559721;32;33988;-84
2022/03/26 06:34:30;;;;;;;25.75;13.23;;;;;;;19.42;29.50;101467.34;5555896;32;33854;-84
2022/03/26 06:37:33;;;;;;;23.15;12.75;;;;;;;20.17;28.39;101471.88;5555849;32;34393;-84
2022/03/26 06:40:40;;;;;;;25.88;12.93;;;;;;;19.18;27.99;101470.78;5555350;32;34111;-84
2022/03/26 06:43:44;;;;;;;22.00;12.37;;;;;;;19.78;26.97;101473.78;5556173;32;34913;-84
2022/03/26 06:46:47;;;;;;;25.80;13.10;;;;;;;20.08;27.27;101463.63;5556551;32;34101;-84
2022/03/26 06:49:50;;;;;;;23.48;12.70;;;;;;;19.71;27.43;101470.66;5558762;32;34623;-84
2022/03/26 06:52:55;;;;;;;21.00;13.95;;;;;;;18.57;28.90;101481.00;5560432;32;34379;-84
2022/03/26 06:55:57;;;;;;;21.67;13.57;;;;;;;18.18;29.98;101488.03;5560322;32;34463;-84
2022/03/26 06:59:01;;;;;;;27.15;15.02;;;;;;;18.89;29.04;101485.22;5557730;32;34205;-84
2022/03/26 07:02:05;;;;;;;21.70;13.25;;;;;;;19.90;27.96;101474.72;5555293;32;34220;-84
2022/03/26 07:05:09;;;;;;;21.40;14.65;;;;;;;18.82;28.62;101484.75;5555590;32;33682;-84
2022/03/26 07:08:12;;;;;;;19.05;12.98;;;;;;;20.18;27.83;101486.22;5556087;32;33961;-84
2022/03/26 07:11:16;;;;;;;25.90;13.50;;;;;;;20.89;26.05;101484.66;5554321;32;34367;-84
2022/03/26 07:14:19;;;;;;;27.55;14.70;;;;;;;21.16;26.07;101483.53;5554359;32;34151;-84
2022/03/26 07:17:22;;;;;;;22.42;15.13;;;;;;;21.23;25.91;101488.31;5555780;32;34108;-84
2022/03/26 07:20:25;;;;;;;20.73;14.40;;;;;;;21.00;26.25;101496.34;5557233;32;34195;-84
2022/03/26 07:23:28;;;;;;;24.87;16.52;;;;;;;21.02;26.42;101484.56;5557609;32;34292;-84
2022/03/26 07:26:31;;;;;;;29.58;17.45;;;;;;;21.56;25.44;101477.69;5554429;32;33762;-84
2022/03/26 07:29:35;;;;;;;31.62;17.23;;;;;;;21.79;25.19;101481.28;5555413;32;34108;-84
2022/03/26 07:32:38;;;;;;;28.73;17.30;;;;;;;21.83;25.21;101489.12;5556689;32;33722;-84
2022/03/26 07:35:41;;;;;;;38.13;19.65;;;;;;;22.44;24.40;101469.75;5556124;32;34433;-85
2022/03/26 07:38:44;;;;;;;28.12;18.20;;;;;;;23.30;23.00;101481.53;5558403;32;34199;-84
2022/03/26 07:41:47;;;;;;;30.55;18.37;;;;;;;24.68;21.49;101478.47;5556248;32;34977;-84
2022/03/26 07:44:50;;;;;;;26.77;18.67;;;;;;;24.63;21.83;101481.59;5556561;32;34148;-85
2022/03/26 07:47:53;;;;;;;27.75;17.48;;;;;;;24.58;21.27;101481.16;5555739;32;34214;-84
2022/03/26 07:50:57;;;;;;;25.12;16.12;;;;;;;25.02;20.61;101481.63;5556247;32;34151;-85
2022/03/26 07:54:00;;;;;;;25.02;15.55;;;;;;;26.17;20.01;101472.50;5555768;32;34090;-85
2022/03/26 07:57:04;;;;;;;25.15;13.98;;;;;;;28.75;17.24;101482.22;5555059;32;33800;-85
2022/03/26 08:00:09;;;;;;;21.33;13.68;;;;;;;30.00;15.89;101471.91;5554670;32;34338;-85
2022/03/26 08:03:14;;;;;;;22.52;14.87;;;;;;;30.64;15.05;101461.75;5555346;32;33785;-85
2022/03/26 08:06:18;;;;;;;20.45;15.10;;;;;;;31.10;14.21;101460.87;5557355;32;34451;-85
2022/03/26 08:09:20;;;;;;;21.95;14.43;;;;;;;31.72;14.26;101461.56;5555497;32;34543;-85
2022/03/26 08:12:23;;;;;;;20.33;14.25;;;;;;;33.20;13.14;101466.88;5558695;32;34547;-87
2022/03/26 08:15:26;;;;;;;24.45;15.40;;;;;;;33.91;12.11;101453.06;5555996;32;35225;-89
2022/03/26 08:18:29;;;;;;;22.65;14.63;;;;;;;34.64;11.91;101449.66;5554965;32;35203;-90
2022/03/26 08:21:37;;;;;;;25.67;15.05;;;;;;;34.41;12.35;101456.41;5555003;32;34260;-86
2022/03/26 08:24:40;;;;;;;24.23;15.07;;;;;;;33.17;12.97;101462.62;5554430;32;34447;-86
2022/03/26 08:27:43;;;;;;;25.23;15.45;;;;;;;32.59;13.14;101460.03;5553801;32;34407;-85
2022/03/26 08:30:46;;;;;;;23.52;14.40;;;;;;;31.14;14.06;101458.59;5541032;32;32629;-86
2022/03/26 08:33:50;;;;;;;20.45;14.02;;;;;;;28.48;16.01;101466.00;5548397;32;34262;-86
2022/03/26 08:36:52;;;;;;;24.12;14.40;;;;;;;28.07;16.58;101457.72;5556996;32;33614;-86
2022/03/26 08:39:55;;;;;;;22.17;15.00;;;;;;;27.74;17.05;101457.59;5558200;32;33922;-86
2022/03/26 08:42:59;;;;;;;20.50;14.38;;;;;;;27.06;17.48;101462.81;5556703;32;34277;-86
2022/03/26 08:46:01;;;;;;;22.95;13.60;;;;;;;25.68;18.30;101465.44;5556547;32;34228;-86
2022/03/26 08:49:05;;;;;;;19.37;13.38;;;;;;;24.28;20.00;101469.44;5555677;32;34172;-86
2022/03/26 08:52:07;;;;;;;23.08;13.45;;;;;;;25.02;19.38;101472.59;5558228;32;34196;-85
2022/03/26 08:55:10;;;;;;;19.95;12.75;;;;;;;24.41;19.85;101472.75;5560241;32;34252;-85
2022/03/26 08:58:14;;;;;;;22.45;13.32;;;;;;;24.16;20.44;101468.69;5558487;32;34254;-85
2022/03/26 09:01:19;;;;;;;23.30;13.57;;;;;;;24.01;20.35;101469.06;5557153;32;34200;-84
2022/03/26 09:04:22;;;;;;;20.48;12.95;;;;;;;22.55;21.34;101468.91;5558846;32;34343;-85
2022/03/26 09:07:25;;;;;;;17.00;12.60;;;;;;;22.23;22.01;101467.00;5554792;32;34709;-84
2022/03/26 09:10:28;;;;;;;20.48;13.15;;;;;;;23.04;21.33;101459.44;5558666;32;34777;-84
2022/03/26 09:13:35;;;;;;;19.75;13.62;;;;;;;23.52;20.71;101461.59;5565533;32;35217;-84
2022/03/26 09:16:40;;;;;;;22.58;13.65;;;;;;;23.53;21.50;101457.91;5552242;32;35019;-84
2022/03/26 09:19:45;;;;;;;21.02;13.52;;;;;;;24.05;20.45;101456.97;5564636;32;34654;-84
2022/03/26 09:22:56;;;;;;;22.33;13.27;;;;;;;24.28;20.37;101453.19;5561568;32;34181;-83
2022/03/26 09:26:24;;;;;;;23.02;13.20;;;;;;;24.61;20.38;101454.63;5560885;32;34344;-84
2022/03/26 09:29:35;;;;;;;20.53;12.97;;;;;;;25.06;19.81;101451.47;5545686;32;34359;-83
2022/03/26 09:33:04;;;;;;;20.52;12.10;;;;;;;24.40;19.89;101456.59;5558926;32;34116;-82
2022/03/26 09:36:06;;;;;;;18.77;12.63;;;;;;;24.27;20.29;101451.44;5563868;32;35257;-82
2022/03/26 09:39:09;;;;;;;21.02;13.65;;;;;;;24.58;19.99;101446.75;5562481;32;34811;-87
2022/03/26 09:42:14;;;;;;;22.25;12.35;;;;;;;24.06;20.44;101445.12;5559094;32;34116;-88
2022/03/26 09:49:26;;;;;;;23.48;13.57;;;;;;;24.50;20.05;101436.63;5557581;32;34411;-82
2022/03/26 09:52:29;;;;;;;25.27;13.80;;;;;;;23.71;20.51;101432.00;5557625;32;34098;-82
2022/03/26 09:55:33;;;;;;;27.00;13.02;;;;;;;23.77;20.48;101431.47;5561102;32;34155;-83
2022/03/26 09:58:40;;;;;;;18.12;13.00;;;;;;;24.18;20.20;101436.91;5561878;32;33920;-82
2022/03/26 10:01:43;;;;;;;21.98;14.05;;;;;;;24.50;20.04;101428.47;5560476;32;35385;-82
2022/03/26 10:04:46;;;;;;;19.12;13.02;;;;;;;24.82;19.81;101426.50;5559366;32;33962;-83
2022/03/26 10:07:51;;;;;;;22.17;13.45;;;;;;;25.36;18.87;101414.22;5559553;32;34115;-83
2022/03/26 10:10:55;;;;;;;27.30;13.50;;;;;;;25.37;19.53;101416.81;5558668;32;34660;-83
2022/03/26 10:13:59;;;;;;;17.83;11.70;;;;;;;25.21;19.33;101412.00;5558360;32;34305;-83
2022/03/26 10:17:22;;;;;;;21.15;11.30;;;;;;;25.76;18.86;101410.37;5558449;32;34137;-83
2022/03/26 10:20:25;;;;;;;17.83;11.48;;;;;;;25.84;19.45;101406.87;5557873;32;34342;-83
2022/03/26 10:23:29;;;;;;;17.48;11.68;;;;;;;26.41;17.75;101399.50;5557447;32;34078;-83
2022/03/26 10:26:32;;;;;;;17.90;11.77;;;;;;;25.46;18.16;101393.31;5560177;32;34109;-83
2022/03/26 10:30:08;;;;;;;13.65;9.02;;;;;;;26.53;17.58;101395.53;5563128;32;33537;-83
2022/03/26 10:33:27;;;;;;;15.98;9.75;;;;;;;29.76;14.14;101378.03;5514788;32;34132;-83
2022/03/26 10:36:30;;;;;;;18.98;9.25;;;;;;;30.66;13.91;101380.28;5559880;32;34402;-83
2022/03/26 10:39:36;;;;;;;11.80;8.32;;;;;;;29.54;13.61;101380.53;5559714;32;34285;-83
2022/03/26 10:42:39;;;;;;;11.15;7.28;;;;;;;27.57;15.00;101379.34;5559330;32;34210;-83
2022/03/26 10:45:52;;;;;;;12.23;7.43;;;;;;;27.28;15.21;101379.72;5559739;32;34096;-83
2022/03/26 10:49:02;;;;;;;14.00;8.00;;;;;;;26.21;15.69;101375.16;5559429;32;34505;-83
2022/03/26 10:52:16;;;;;;;12.68;8.02;;;;;;;26.33;15.86;101371.22;5556575;32;34411;-83
2022/03/26 10:55:19;;;;;;;14.63;7.53;;;;;;;24.98;16.44;101366.19;5556260;32;34367;-82
2022/03/26 10:58:22;;;;;;;21.98;8.20;;;;;;;24.99;15.83;101361.63;5555763;32;34166;-83
2022/03/26 11:01:25;;;;;;;12.52;7.37;;;;;;;23.36;16.93;101364.63;5541727;32;33016;-83
2022/03/26 11:04:29;;;;;;;12.60;7.15;;;;;;;26.76;14.44;101356.94;5556969;32;34133;-83
2022/03/26 11:07:35;;;;;;;12.63;6.60;;;;;;;28.61;12.93;101358.22;5542663;32;34140;-84
2022/03/26 11:10:38;;;;;;;13.62;7.15;;;;;;;29.38;12.06;101351.38;5553117;32;34609;-84
2022/03/26 11:13:48;;;;;;;14.02;7.68;;;;;;;26.27;14.10;101351.94;5552093;32;34178;-84
2022/03/26 11:17:08;;;;;;;11.10;6.65;;;;;;;23.18;16.86;101360.81;5552970;32;34172;-83
2022/03/26 11:20:25;;;;;;;12.95;8.10;;;;;;;22.79;17.30;101353.34;5554363;32;34140;-83
2022/03/26 11:23:42;;;;;;;25.45;9.13;;;;;;;23.28;17.10;101348.19;5553865;32;34750;-84
2022/03/26 11:27:06;;;;;;;13.85;9.50;;;;;;;22.74;17.27;101340.25;5552981;32;33643;-88
2022/03/26 11:30:19;;;;;;;17.58;8.98;;;;;;;20.93;18.52;101343.22;5553338;32;33752;-83
2022/03/26 11:33:22;;;;;;;21.95;10.50;;;;;;;23.32;16.52;101338.84;5553443;32;34306;-83
2022/03/26 11:36:27;;;;;;;22.30;10.73;;;;;;;23.34;15.97;101327.88;5553603;32;34039;-83
2022/03/26 11:39:43;;;;;;;19.87;10.00;;;;;;;23.45;15.47;101335.03;5557920;32;34292;-83
2022/03/26 11:42:49;;;;;;;24.77;11.75;;;;;;;22.72;15.23;101331.38;5553072;32;34279;-84
2022/03/26 11:52:54;;;;;;;23.67;12.30;;;;;;;21.79;16.72;101324.63;5553683;32;34501;-84
2022/03/26 11:55:57;;;;;;;27.83;13.98;;;;;;;21.60;17.10;101321.72;5539041;32;33703;-85
2022/03/26 11:59:06;;;;;;;19.73;12.95;;;;;;;21.22;17.28;101305.81;5552439;32;34460;-85
2022/03/26 12:02:16;;;;;;;22.58;14.23;;;;;;;20.65;18.08;101310.28;5552362;32;33557;-85
2022/03/26 12:08:56;;;;;;;23.52;14.45;;;;;;;19.58;19.35;101311.03;5553381;32;33691;-84
2022/03/26 12:12:19;;;;;;;26.37;14.13;;;;;;;20.17;19.02;101304.03;5553254;32;33984;-84
2022/03/26 12:15:24;;;;;;;21.05;13.25;;;;;;;20.62;18.52;101292.53;5553485;32;33702;-84
2022/03/26 12:18:37;;;;;;;21.77;13.70;;;;;;;20.31;18.83;101298.44;5552661;32;34369;-83
2022/03/26 12:21:49;;;;;;;25.27;13.48;;;;;;;20.56;18.65;101291.16;5552856;32;33662;-83
2022/03/26 12:24:54;;;;;;;28.77;12.93;;;;;;;19.87;18.87;101292.72;5554178;32;34212;-83
2022/03/26 12:27:57;;;;;;;19.80;12.85;;;;;;;20.16;18.12;101289.69;5554599;32;34218;-84
2022/03/26 12:31:05;;;;;;;21.33;12.90;;;;;;;19.82;18.76;101286.84;5559184;32;33985;-84
2022/03/26 12:34:08;;;;;;;21.37;13.85;;;;;;;19.70;19.67;101295.84;5553073;32;34166;-84
